Barkersville, New York
Current Conditions -  °F | °C
As of 3:35 PM on Tuesday 25 Nov 2014 (Local Time) from KNY0 Reporting Station
Clear Clear  
Wind Chill:   Ceiling: Unl
Heat Index:   Visibility: 10mi
Dew Point: -4°   Wind: 8mph
Humidity: 44%   Direction: 250°WSW
Pressure: 29.93"   Gusts: NA
Location:  43.1097°N, 74.0176°W
Report Text: KNY0 252035Z AUTO 25007KT 10SM CLR 08/M04 A2993 RMK AO2 T00781039
Loading
Personal Weather Stations






























Interactive Weather Map New forecast layout! Learn more

10-Day Weather Forecast

Advertisements
Track Severe Weather on mobile